createdAt,value
2024-04-12T03:45:55.631Z,99.50
2024-04-12T03:48:25.849Z,99.60
2024-04-12T03:51:01.920Z,99.50
2024-04-12T03:53:32.161Z,99.50
2024-04-12T03:55:59.311Z,99.40
2024-04-12T03:58:31.078Z,99.40
2024-04-12T04:00:58.150Z,99.50
2024-04-12T04:03:34.135Z,99.50
2024-04-12T04:06:12.884Z,99.70
2024-04-12T04:08:53.206Z,99.80
2024-04-12T04:11:20.421Z,99.90
2024-04-12T04:13:51.014Z,99.90
2024-04-12T04:16:18.175Z,99.90
2024-04-12T04:18:51.001Z,99.90
2024-04-12T04:21:18.440Z,99.90
2024-04-12T04:23:47.535Z,99.90
2024-04-12T04:26:14.793Z,99.90
2024-04-12T04:28:42.983Z,99.90
2024-04-12T04:31:10.092Z,99.90
2024-04-12T04:33:40.131Z,99.90
2024-04-12T04:36:10.647Z,99.90
2024-04-12T04:38:38.247Z,99.90
2024-04-12T04:41:07.813Z,99.90
2024-04-12T04:43:35.247Z,99.90
2024-04-12T04:46:23.372Z,99.90
2024-04-12T04:48:53.253Z,99.90
2024-04-12T04:51:20.926Z,99.90
2024-04-12T04:53:48.156Z,99.90
2024-04-12T04:56:25.361Z,99.90
2024-04-12T04:58:52.952Z,99.90
2024-04-12T05:01:20.152Z,99.90
2024-04-12T05:03:50.654Z,99.90
2024-04-12T05:06:25.617Z,99.90
2024-04-12T05:08:53.960Z,99.90
2024-04-12T05:11:21.485Z,99.90
2024-04-12T05:13:56.930Z,99.90
2024-04-12T05:16:24.411Z,99.90
2024-04-12T05:18:54.538Z,99.90
2024-04-12T05:21:21.733Z,99.90
2024-04-12T05:23:54.944Z,99.90
2024-04-12T05:26:24.790Z,99.90
2024-04-12T05:28:52.047Z,99.90
2024-04-12T05:31:21.228Z,99.90
2024-04-12T05:33:50.852Z,99.90
2024-04-12T05:36:18.124Z,99.90
2024-04-12T05:38:46.988Z,99.90
2024-04-12T05:41:16.474Z,99.90
2024-04-12T05:43:43.539Z,99.90
2024-04-12T05:46:10.956Z,99.90
2024-04-12T05:48:38.616Z,99.90
2024-04-12T05:51:05.929Z,99.90
2024-04-12T05:53:34.589Z,99.90
2024-04-12T05:56:21.627Z,99.90
2024-04-12T05:58:52.243Z,99.90
2024-04-12T06:01:19.686Z,99.90
2024-04-12T06:03:53.701Z,99.90
2024-04-12T06:06:23.369Z,99.90
2024-04-12T06:08:50.795Z,99.90
2024-04-12T06:11:18.959Z,99.90
2024-04-12T06:13:53.432Z,99.90
2024-04-12T06:16:20.706Z,99.90
2024-04-12T06:18:47.854Z,99.90
2024-04-12T06:21:14.962Z,99.90
2024-04-12T06:23:42.068Z,99.90
2024-04-12T06:26:10.172Z,99.90
2024-04-12T06:28:39.185Z,99.90
2024-04-12T06:31:07.434Z,99.90
2024-04-12T06:33:34.924Z,99.90
2024-04-12T06:36:13.138Z,99.90
2024-04-12T06:38:40.634Z,99.90
2024-04-12T06:41:11.841Z,99.90
2024-04-12T06:43:39.167Z,99.90
2024-04-12T06:46:28.624Z,99.90
2024-04-12T06:49:08.809Z,99.90
2024-04-12T06:51:36.463Z,99.90
2024-04-12T06:54:05.230Z,99.90
2024-04-12T06:56:34.960Z,99.90
2024-04-12T06:59:08.490Z,99.90
2024-04-12T07:01:35.721Z,99.90
2024-04-12T07:04:06.957Z,99.90
2024-04-12T07:06:34.292Z,99.90
2024-04-12T07:09:01.474Z,99.90
2024-04-12T07:11:28.577Z,99.90
2024-04-12T07:13:55.687Z,99.90
2024-04-12T07:16:25.134Z,99.90
2024-04-12T07:18:52.446Z,99.90
2024-04-12T07:21:24.349Z,99.90
2024-04-12T07:23:52.246Z,99.90
2024-04-12T07:26:26.643Z,99.90
2024-04-12T07:29:01.034Z,99.90
2024-04-12T07:31:31.672Z,99.90
2024-04-12T07:34:03.127Z,99.90
2024-04-12T07:36:33.547Z,99.90
2024-04-12T07:39:09.342Z,99.90
2024-04-12T07:41:44.308Z,99.90
2024-04-12T07:44:13.682Z,99.90
2024-04-12T07:46:50.151Z,99.90
2024-04-12T07:49:17.395Z,99.90
2024-04-12T07:51:46.529Z,99.90
2024-04-12T07:54:14.652Z,99.90
2024-04-12T07:56:44.618Z,99.90
2024-04-12T07:59:15.531Z,99.90
2024-04-12T08:01:49.083Z,99.90
2024-04-12T08:04:27.235Z,99.90
2024-04-12T08:06:58.128Z,99.90
2024-04-12T08:09:45.806Z,99.90
2024-04-12T08:12:16.952Z,99.90
2024-04-12T08:14:54.864Z,99.90
2024-04-12T08:17:26.877Z,99.90
2024-04-12T08:19:58.402Z,99.90
2024-04-12T08:22:27.352Z,99.90
2024-04-12T08:24:55.432Z,99.90
2024-04-12T08:27:27.082Z,99.90
2024-04-12T08:29:56.786Z,99.90
2024-04-12T08:32:32.973Z,99.90
2024-04-12T08:35:07.727Z,99.90
2024-04-12T08:37:39.569Z,99.90
2024-04-12T08:40:10.702Z,99.90
2024-04-12T08:42:38.369Z,99.90
2024-04-12T08:45:15.925Z,99.90
2024-04-12T08:47:57.609Z,99.90
2024-04-12T08:50:25.710Z,99.90
2024-04-12T08:52:59.044Z,99.90
2024-04-12T08:55:26.699Z,99.90
2024-04-12T08:57:58.160Z,99.90
2024-04-12T09:00:30.310Z,99.90
2024-04-12T09:03:03.950Z,99.90
2024-04-12T09:05:36.968Z,99.90
2024-04-12T09:08:08.129Z,99.90
2024-04-12T09:10:36.625Z,99.90
2024-04-12T09:13:09.025Z,99.90
2024-04-12T09:15:43.476Z,99.90
2024-04-12T09:18:21.370Z,99.90
2024-04-12T09:20:54.359Z,99.90
2024-04-12T09:23:34.183Z,99.90
2024-04-12T09:26:21.553Z,99.90
2024-04-12T09:28:49.044Z,99.90
2024-04-12T09:31:35.140Z,99.90
2024-04-12T09:34:24.092Z,99.90
2024-04-12T09:36:57.546Z,99.90
2024-04-12T09:39:25.213Z,99.90
2024-04-12T09:42:04.163Z,99.90
2024-04-12T09:44:49.826Z,99.90
2024-04-12T09:47:17.588Z,99.90
2024-04-12T09:50:03.844Z,99.90
2024-04-12T09:52:50.041Z,99.90
2024-04-12T09:55:37.961Z,99.90
2024-04-12T09:58:24.206Z,99.90
2024-04-12T10:01:12.584Z,99.90
2024-04-12T10:03:59.270Z,99.90
2024-04-12T10:06:48.997Z,99.90
2024-04-12T10:09:36.237Z,99.90
2024-04-12T10:12:22.982Z,99.90
2024-04-12T10:15:10.555Z,99.90
2024-04-12T10:18:01.206Z,99.90
2024-04-12T10:20:56.750Z,99.90
2024-04-12T10:23:48.456Z,99.90
2024-04-12T10:26:34.484Z,99.90
2024-04-12T10:29:23.253Z,99.90
2024-04-12T10:32:08.844Z,99.90
2024-04-12T10:34:54.307Z,99.90
2024-04-12T10:37:30.960Z,99.90
2024-04-12T10:39:58.963Z,99.90
2024-04-12T10:42:29.427Z,99.60
2024-04-12T10:45:01.372Z,99.90
2024-04-12T10:47:29.493Z,99.90
2024-04-12T10:49:57.857Z,99.90
2024-04-12T10:52:31.439Z,99.90
2024-04-12T10:54:59.596Z,99.80
2024-04-12T10:57:30.372Z,99.80
2024-04-12T11:00:02.020Z,99.90
2024-04-12T11:02:29.340Z,99.70
2024-04-12T11:05:15.157Z,99.90
2024-04-12T11:07:42.274Z,99.90
2024-04-12T11:10:23.959Z,99.90
2024-04-12T11:13:10.061Z,99.90
2024-04-12T11:15:37.938Z,99.90
2024-04-12T11:18:30.376Z,99.80
2024-04-12T11:21:19.678Z,99.90
2024-04-12T11:24:06.366Z,99.50
2024-04-12T11:26:52.021Z,99.80
2024-04-12T11:29:38.262Z,99.30
2024-04-12T11:32:13.843Z,98.60
2024-04-12T11:34:47.317Z,99.70
2024-04-12T11:37:16.708Z,98.90
2024-04-12T11:39:44.034Z,99.30
2024-04-12T11:42:19.704Z,98.80
2024-04-12T11:44:54.638Z,98.70
2024-04-12T11:47:24.663Z,98.80
2024-04-12T11:49:58.787Z,99.30
2024-04-12T11:52:27.098Z,99.60
2024-04-12T11:54:54.375Z,99.70
2024-04-12T11:57:23.932Z,99.90
2024-04-12T12:00:02.076Z,99.60
2024-04-12T12:02:30.252Z,99.80
2024-04-12T12:04:57.720Z,99.50
2024-04-12T12:07:27.765Z,98.70
2024-04-12T12:09:54.984Z,99.50
2024-04-12T12:12:28.434Z,99.00
2024-04-12T12:14:55.975Z,98.70
2024-04-12T12:17:23.103Z,98.70
2024-04-12T12:19:54.025Z,98.80
2024-04-12T12:22:22.848Z,98.80
2024-04-12T12:24:50.163Z,98.70
2024-04-12T12:27:20.812Z,99.00
2024-04-12T12:29:50.425Z,98.00
2024-04-12T12:32:17.638Z,97.80
2024-04-12T12:34:44.960Z,96.90
2024-04-12T12:37:12.057Z,98.50
2024-04-12T12:39:39.178Z,97.10
2024-04-12T12:42:06.726Z,98.10
2024-04-12T12:44:33.830Z,98.10
2024-04-12T12:47:01.189Z,98.00
2024-04-12T12:49:28.329Z,98.40
2024-04-12T12:51:55.542Z,98.70
2024-04-12T12:54:22.688Z,98.50
2024-04-12T12:56:49.808Z,97.60
2024-04-12T12:59:17.553Z,97.30
2024-04-12T13:01:48.183Z,97.10
2024-04-12T13:04:15.296Z,96.70
2024-04-12T13:06:44.757Z,96.40
2024-04-12T13:09:18.222Z,97.40
2024-04-12T13:11:45.367Z,96.00
2024-04-12T13:14:12.512Z,95.60
2024-04-12T13:16:43.250Z,97.00
2024-04-12T13:19:17.066Z,97.10
2024-04-12T13:21:47.030Z,95.70
2024-04-12T13:24:15.805Z,96.20
2024-04-12T13:26:51.504Z,96.70
2024-04-12T13:29:19.225Z,94.10
2024-04-12T13:31:51.469Z,94.50
2024-04-12T13:34:19.582Z,93.80
2024-04-12T13:36:48.777Z,93.80
2024-04-12T13:39:16.434Z,94.20
2024-04-12T13:41:46.283Z,93.90
2024-04-12T13:44:26.429Z,91.70
2024-04-12T13:47:12.898Z,93.10
2024-04-12T13:49:58.488Z,93.00
2024-04-12T13:52:26.387Z,90.40
2024-04-12T13:54:57.182Z,92.60
2024-04-12T13:57:25.643Z,93.20
2024-04-12T13:59:53.317Z,91.00
2024-04-12T14:02:20.459Z,87.70
2024-04-12T14:04:47.661Z,91.10
2024-04-12T14:07:16.240Z,92.10
2024-04-12T14:09:44.055Z,91.60
2024-04-12T14:12:11.342Z,91.70
2024-04-12T14:14:38.563Z,90.80
2024-04-12T14:17:06.600Z,92.70
2024-04-12T14:19:33.837Z,92.50
2024-04-12T14:22:00.986Z,93.10
2024-04-12T14:24:47.654Z,92.10
2024-04-12T14:27:14.855Z,93.80
2024-04-12T14:29:42.078Z,93.00
2024-04-12T14:32:12.106Z,92.30
2024-04-12T14:34:43.714Z,93.80
2024-04-12T14:37:15.201Z,93.70
2024-04-12T14:39:43.919Z,93.90
2024-04-12T14:42:16.621Z,94.20
2024-04-12T14:44:45.208Z,94.30
2024-04-12T14:47:12.488Z,94.30
2024-04-12T14:49:39.683Z,94.30
2024-04-12T14:52:12.516Z,94.20
2024-04-12T14:54:42.986Z,94.90
2024-04-12T14:57:10.372Z,94.70
2024-04-12T14:59:37.853Z,95.10
2024-04-12T15:02:07.216Z,95.10
2024-04-12T15:04:53.054Z,95.00
2024-04-12T15:07:38.711Z,95.00
2024-04-12T15:10:24.893Z,95.30
2024-04-12T15:13:10.583Z,95.20
2024-04-12T15:15:56.272Z,95.50
2024-04-12T15:18:42.047Z,95.40
2024-04-12T15:21:27.711Z,95.20
2024-04-12T15:24:13.594Z,95.50
2024-04-12T15:26:59.158Z,95.80
2024-04-12T15:29:44.789Z,94.90
2024-04-12T15:32:30.994Z,95.00
2024-04-12T15:35:16.883Z,95.10
2024-04-12T15:38:02.530Z,95.00
2024-04-12T15:40:48.289Z,94.90
2024-04-12T15:43:33.801Z,95.10
2024-04-12T15:46:19.368Z,95.10
2024-04-12T15:48:46.923Z,95.00
2024-04-12T15:51:17.980Z,94.90
2024-04-12T15:53:46.824Z,94.80
2024-04-12T15:56:15.014Z,95.50
2024-04-12T15:59:02.141Z,94.50
2024-04-12T16:01:47.769Z,94.70
2024-04-12T16:04:33.431Z,95.10
2024-04-12T16:07:19.097Z,95.50
2024-04-12T16:10:04.705Z,95.10
2024-04-12T16:12:32.114Z,95.00
2024-04-12T16:15:00.467Z,94.30
2024-04-12T16:17:29.601Z,95.00
2024-04-12T16:19:56.904Z,94.50
2024-04-12T16:22:26.842Z,94.90
2024-04-12T16:24:55.422Z,94.50
2024-04-12T16:27:22.678Z,94.20
2024-04-12T16:29:49.926Z,94.40
2024-04-12T16:32:19.234Z,93.80
2024-04-12T16:34:47.885Z,94.40
2024-04-12T16:37:14.985Z,94.40
2024-04-12T16:39:42.092Z,93.70
2024-04-12T16:42:09.159Z,93.20
2024-04-12T16:44:36.466Z,93.80
2024-04-12T16:47:03.594Z,94.50
2024-04-12T16:49:30.704Z,94.70
2024-04-12T16:51:57.799Z,95.00
2024-04-12T16:54:25.099Z,93.90
2024-04-12T16:56:52.294Z,94.50
2024-04-12T16:59:19.639Z,94.20
2024-04-12T17:01:46.834Z,94.80
2024-04-12T17:04:14.081Z,94.70
2024-04-12T17:06:41.929Z,94.80
2024-04-12T17:09:11.084Z,95.20
2024-04-12T17:11:39.216Z,94.80
2024-04-12T17:14:06.727Z,94.90
2024-04-12T17:16:34.144Z,95.30
2024-04-12T17:19:01.459Z,95.10
2024-04-12T17:21:28.761Z,95.10
2024-04-12T17:23:55.867Z,95.30
2024-04-12T17:26:23.044Z,95.20
2024-04-12T17:28:50.161Z,95.70
2024-04-12T17:31:17.282Z,96.00
2024-04-12T17:33:44.471Z,96.70
2024-04-12T17:36:13.507Z,96.50
2024-04-12T17:38:40.712Z,96.50
2024-04-12T17:41:08.447Z,96.60
2024-04-12T17:43:35.525Z,96.80
2024-04-12T17:46:02.808Z,97.00
2024-04-12T17:48:30.092Z,97.60
2024-04-12T17:50:57.815Z,97.60
2024-04-12T17:53:25.446Z,97.30
2024-04-12T17:55:57.541Z,97.50
2024-04-12T17:58:24.802Z,97.30
2024-04-12T18:01:01.343Z,97.50
2024-04-12T18:03:28.562Z,97.40
2024-04-12T18:05:55.689Z,97.40
2024-04-12T18:08:27.313Z,97.30
2024-04-12T18:11:00.520Z,97.60
2024-04-12T18:13:28.449Z,97.60
2024-04-12T18:15:58.844Z,97.60
2024-04-12T18:18:26.588Z,97.50
2024-04-12T18:20:54.170Z,97.70
2024-04-12T18:23:21.955Z,97.70
2024-04-12T18:25:57.938Z,97.60
2024-04-12T18:28:28.399Z,97.20
2024-04-12T18:30:55.718Z,97.70
2024-04-12T18:33:23.264Z,97.60
2024-04-12T18:36:03.290Z,97.90
2024-04-12T18:38:49.422Z,97.70
2024-04-12T18:41:35.099Z,97.90
2024-04-12T18:44:20.860Z,97.40
2024-04-12T18:46:47.932Z,97.80
2024-04-12T18:49:15.204Z,97.80
2024-04-12T18:51:42.473Z,97.70
2024-04-12T18:54:09.754Z,98.00
2024-04-12T18:56:37.472Z,97.70
2024-04-12T18:59:04.904Z,97.90
2024-04-12T19:01:31.984Z,98.00
2024-04-12T19:04:00.624Z,97.90
2024-04-12T19:06:27.890Z,97.80
2024-04-12T19:08:55.102Z,98.10
2024-04-12T19:11:22.598Z,97.80
2024-04-12T19:13:50.051Z,98.20
2024-04-12T19:16:17.117Z,98.20
2024-04-12T19:18:44.526Z,97.60
2024-04-12T19:21:11.711Z,98.10
2024-04-12T19:23:39.235Z,98.30
2024-04-12T19:26:06.604Z,98.10
2024-04-12T19:28:33.891Z,98.30
2024-04-12T19:31:04.681Z,98.30
2024-04-12T19:33:32.861Z,98.20
2024-04-12T19:36:04.090Z,98.20
2024-04-12T19:38:31.849Z,98.30
2024-04-12T19:40:59.713Z,98.40
2024-04-12T19:43:27.034Z,98.40
2024-04-12T19:45:55.208Z,98.20
2024-04-12T19:48:22.747Z,98.30
2024-04-12T19:50:49.926Z,98.20
2024-04-12T19:53:17.204Z,98.00
2024-04-12T19:55:54.771Z,98.30
2024-04-12T19:58:22.194Z,98.30
2024-04-12T20:00:49.411Z,98.70
2024-04-12T20:03:17.010Z,98.30
2024-04-12T20:05:47.369Z,98.60
2024-04-12T20:08:14.517Z,98.70
2024-04-12T20:10:41.564Z,98.60
2024-04-12T20:13:08.860Z,98.50
2024-04-12T20:15:36.000Z,98.60
2024-04-12T20:18:03.936Z,98.60
2024-04-12T20:20:31.275Z,98.50
2024-04-12T20:22:58.864Z,98.50
2024-04-12T20:25:28.873Z,98.20
2024-04-12T20:27:55.980Z,98.30
2024-04-12T20:30:43.023Z,98.50
2024-04-12T20:33:10.984Z,98.40
2024-04-12T20:35:48.794Z,98.60
2024-04-12T20:38:15.877Z,98.50
2024-04-12T20:40:42.978Z,98.20
2024-04-12T20:43:10.099Z,98.10
2024-04-12T20:45:37.351Z,98.00
2024-04-12T20:48:06.156Z,98.20
2024-04-12T20:50:35.132Z,98.30
2024-04-12T20:53:02.227Z,98.40
2024-04-12T20:55:29.303Z,98.20
2024-04-12T20:57:56.374Z,98.60
2024-04-12T21:00:23.454Z,98.40
2024-04-12T21:02:52.578Z,98.20
2024-04-12T21:05:19.720Z,98.30
2024-04-12T21:07:46.822Z,98.30
2024-04-12T21:10:13.882Z,98.10
2024-04-12T21:12:40.983Z,98.10
2024-04-12T21:15:08.423Z,98.30
2024-04-12T21:17:38.437Z,98.30
2024-04-12T21:20:05.834Z,98.20
2024-04-12T21:22:32.901Z,98.30
2024-04-12T21:24:59.956Z,98.10
2024-04-12T21:27:27.543Z,98.30
2024-04-12T21:29:54.956Z,98.30
2024-04-12T21:32:23.511Z,98.40
2024-04-12T21:34:50.603Z,98.10
2024-04-12T21:37:17.720Z,98.20
2024-04-12T21:39:44.818Z,98.40
2024-04-12T21:42:12.928Z,98.50
2024-04-12T21:44:40.321Z,98.40
2024-04-12T21:47:09.025Z,98.40
2024-04-12T21:49:38.812Z,98.40
2024-04-12T21:52:07.531Z,98.60
2024-04-12T21:54:34.608Z,98.50
2024-04-12T21:57:02.932Z,98.40
2024-04-12T21:59:30.000Z,98.20
2024-04-12T22:01:57.067Z,98.20
2024-04-12T22:04:25.372Z,98.30
2024-04-12T22:06:52.543Z,98.50
2024-04-12T22:09:19.664Z,98.30
2024-04-12T22:11:46.784Z,98.40
2024-04-12T22:14:13.930Z,98.40
2024-04-12T22:16:41.050Z,98.40
2024-04-12T22:19:08.339Z,98.40
2024-04-12T22:21:35.486Z,98.40
2024-04-12T22:24:02.633Z,98.40
2024-04-12T22:26:30.922Z,98.20
2024-04-12T22:28:57.977Z,98.30
2024-04-12T22:31:26.533Z,98.40
2024-04-12T22:33:54.519Z,98.30
2024-04-12T22:36:23.382Z,98.20
2024-04-12T22:38:51.253Z,98.10
2024-04-12T22:41:18.793Z,98.20
2024-04-12T22:43:46.369Z,98.40
2024-04-12T22:46:15.367Z,98.30
2024-04-12T22:48:44.495Z,98.40
2024-04-12T22:51:21.430Z,98.50
2024-04-12T22:53:48.528Z,98.30
2024-04-12T22:56:15.581Z,98.20
2024-04-12T22:58:42.667Z,98.20
2024-04-12T23:01:09.742Z,98.30
2024-04-12T23:03:37.189Z,98.30
2024-04-12T23:06:04.759Z,98.20
2024-04-12T23:08:31.845Z,98.40
2024-04-12T23:10:58.970Z,98.30
2024-04-12T23:13:26.103Z,98.30
2024-04-12T23:15:53.210Z,98.40
2024-04-12T23:18:20.327Z,98.30
2024-04-12T23:20:54.067Z,98.30
2024-04-12T23:23:21.341Z,98.40
2024-04-12T23:25:48.430Z,98.30
2024-04-12T23:28:16.441Z,98.30
